Time;durP1;ratioP1;P1;durP2;ratioP2;P2;SDS_P1;SDS_P2;PMS_P1;PMS_P2;Temp;Humidity;BMP_temperature;BMP_pressure;BME280_temperature;BME280_humidity;BME280_pressure;Samples;Min_cycle;Max_cycle;Signal;HPM_P1;HPM_P2
2021/04/03 00:02:15;;;;;;;2.23;0.67;;;14.00;99.90;;;;;;4927440;29;20219;-92
2021/04/03 00:04:47;;;;;;;1.13;0.80;;;14.10;99.90;;;;;;4928645;29;20224;-91
2021/04/03 00:07:20;;;;;;;1.13;0.70;;;14.00;99.90;;;;;;4928310;29;20209;-92
2021/04/03 00:09:51;;;;;;;1.03;0.70;;;14.20;99.90;;;;;;4928676;29;20220;-92
2021/04/03 00:12:22;;;;;;;0.93;0.70;;;14.50;99.90;;;;;;4927260;29;20213;-92
2021/04/03 00:14:52;;;;;;;1.57;0.70;;;14.80;99.90;;;;;;4928422;29;20280;-93
2021/04/03 00:17:23;;;;;;;3.50;0.80;;;14.80;99.90;;;;;;4925802;29;20376;-93
2021/04/03 00:19:56;;;;;;;3.23;0.80;;;15.00;99.90;;;;;;4922969;29;20244;-93
2021/04/03 00:22:29;;;;;;;1.07;0.53;;;14.90;99.90;;;;;;4928404;29;20229;-93
2021/04/03 00:24:59;;;;;;;1.00;0.60;;;14.60;99.90;;;;;;4926724;28;20209;-93
2021/04/03 00:27:31;;;;;;;1.63;0.70;;;14.70;99.90;;;;;;4925791;29;20243;-93
2021/04/03 00:30:14;;;;;;;4.60;0.87;;;14.80;99.90;;;;;;4926877;29;20217;-94
2021/04/03 00:32:49;;;;;;;1.93;0.73;;;15.00;99.90;;;;;;4928696;29;20200;-94
2021/04/03 00:35:22;;;;;;;1.50;0.90;;;14.90;99.90;;;;;;4925126;29;20215;-93
2021/04/03 00:37:57;;;;;;;1.10;0.63;;;14.80;99.90;;;;;;4925741;29;20216;-94
2021/04/03 00:40:30;;;;;;;2.70;0.63;;;15.00;99.90;;;;;;4926568;29;20212;-94
2021/04/03 00:43:02;;;;;;;2.90;0.70;;;15.00;99.90;;;;;;4920905;29;20216;-94
2021/04/03 00:45:35;;;;;;;2.17;0.87;;;15.00;99.90;;;;;;4922145;29;20212;-93
2021/04/03 00:48:07;;;;;;;2.77;0.80;;;14.60;99.90;;;;;;4926173;29;20237;-92
2021/04/03 00:50:40;;;;;;;2.23;0.77;;;14.10;99.90;;;;;;4925186;29;20213;-92
2021/04/03 00:53:14;;;;;;;1.10;0.67;;;14.00;99.90;;;;;;4924648;29;20235;-92
2021/04/03 00:55:44;;;;;;;2.47;0.80;;;13.80;99.90;;;;;;4921558;29;20241;-92
2021/04/03 00:58:16;;;;;;;1.30;0.60;;;14.00;99.90;;;;;;4920744;29;20205;-93
2021/04/03 01:00:48;;;;;;;1.83;0.70;;;14.00;99.90;;;;;;4924352;29;20260;-93
2021/04/03 01:03:18;;;;;;;0.70;0.40;;;14.00;99.90;;;;;;4924347;29;20256;-93
2021/04/03 01:05:49;;;;;;;1.10;0.70;;;13.80;99.90;;;;;;4924924;29;20650;-93
2021/04/03 01:08:22;;;;;;;2.37;0.73;;;13.70;99.90;;;;;;4930903;29;20197;-90
2021/04/03 01:10:55;;;;;;;3.43;0.60;;;13.70;99.90;;;;;;4941913;29;20225;-93
2021/04/03 01:14:00;;;;;;;3.90;0.70;;;13.80;99.90;;;;;;4941401;29;20212;-92
2021/04/03 01:16:36;;;;;;;1.47;0.90;;;13.60;99.90;;;;;;4929771;29;20745;-94
2021/04/03 01:19:35;;;;;;;2.73;0.83;;;13.60;99.90;;;;;;4924976;29;20212;-93
2021/04/03 01:22:39;;;;;;;1.23;0.67;;;13.50;99.90;;;;;;4919171;29;20315;-93
2021/04/03 01:25:21;;;;;;;4.27;0.60;;;13.50;99.90;;;;;;4923109;29;20216;-93
2021/04/03 01:28:13;;;;;;;1.90;0.77;;;13.70;99.90;;;;;;4952479;29;20217;-93
2021/04/03 01:30:49;;;;;;;1.10;0.77;;;13.60;99.90;;;;;;4949011;29;20244;-93
2021/04/03 01:33:25;;;;;;;4.93;0.63;;;13.70;99.90;;;;;;4923674;29;20213;-93
2021/04/03 01:36:03;;;;;;;1.47;0.60;;;13.70;99.90;;;;;;4923329;29;20268;-93
2021/04/03 01:38:37;;;;;;;1.03;0.60;;;13.80;99.90;;;;;;4905022;29;20213;-93
2021/04/03 01:41:09;;;;;;;2.10;0.70;;;13.70;99.90;;;;;;4904941;29;20277;-93
2021/04/03 01:43:43;;;;;;;3.93;0.70;;;13.80;99.90;;;;;;4904472;29;20674;-94
2021/04/03 01:46:16;;;;;;;3.37;0.70;;;13.70;99.90;;;;;;4904263;29;20218;-94
2021/04/03 01:48:47;;;;;;;2.53;0.70;;;13.60;99.90;;;;;;4903701;29;20742;-93
2021/04/03 01:51:19;;;;;;;1.23;0.70;;;13.60;99.90;;;;;;4903513;29;20666;-94
2021/04/03 01:53:52;;;;;;;1.13;0.60;;;13.40;99.90;;;;;;4901690;29;20217;-94
2021/04/03 01:56:23;;;;;;;0.80;0.50;;;13.30;99.90;;;;;;4905640;29;20233;-94
2021/04/03 01:58:56;;;;;;;1.70;0.70;;;13.30;99.90;;;;;;4914034;29;20651;-94
2021/04/03 02:01:28;;;;;;;3.23;0.93;;;13.20;99.90;;;;;;4922832;29;20217;-92
2021/04/03 02:04:00;;;;;;;1.13;0.80;;;13.10;99.90;;;;;;4922192;29;20213;-94
2021/04/03 02:06:32;;;;;;;3.53;0.80;;;13.00;99.90;;;;;;4930305;29;20232;-92
2021/04/03 02:09:03;;;;;;;2.30;0.70;;;12.90;99.90;;;;;;4930017;29;20678;-92
2021/04/03 02:11:37;;;;;;;0.90;0.70;;;12.70;99.90;;;;;;4928054;29;20212;-93
2021/04/03 02:14:11;;;;;;;1.57;0.90;;;12.60;99.90;;;;;;4923997;28;20588;-93
2021/04/03 02:16:47;;;;;;;3.83;1.00;;;12.40;99.90;;;;;;4922361;29;20702;-92
2021/04/03 02:19:21;;;;;;;2.60;0.77;;;12.30;99.90;;;;;;4924334;29;20702;-93
2021/04/03 02:21:52;;;;;;;3.03;0.90;;;12.20;99.90;;;;;;4927207;29;20208;-93
2021/04/03 02:24:23;;;;;;;2.00;0.70;;;12.00;99.90;;;;;;4931017;29;20213;-93
2021/04/03 02:26:54;;;;;;;3.83;0.87;;;11.90;99.90;;;;;;4931665;29;20225;-93
2021/04/03 02:29:25;;;;;;;2.93;0.80;;;11.80;99.90;;;;;;4931082;29;20281;-93
2021/04/03 02:31:58;;;;;;;2.67;1.00;;;11.60;99.90;;;;;;4930647;29;20209;-93
2021/04/03 02:34:29;;;;;;;2.83;0.90;;;11.50;99.90;;;;;;4929795;29;20213;-93
2021/04/03 02:37:20;;;;;;;1.13;0.77;;;11.30;99.90;;;;;;4929448;29;20236;-93
2021/04/03 02:39:51;;;;;;;3.73;1.10;;;11.20;99.90;;;;;;4925290;29;20281;-94
2021/04/03 02:42:26;;;;;;;6.47;2.60;;;11.10;99.90;;;;;;4924060;29;20216;-93
2021/04/03 02:45:03;;;;;;;3.53;2.70;;;10.90;99.90;;;;;;4925090;29;20299;-93
2021/04/03 02:47:41;;;;;;;6.73;4.50;;;10.80;99.90;;;;;;4924504;28;20654;-92
2021/04/03 02:50:16;;;;;;;7.97;5.53;;;10.70;99.90;;;;;;4925718;29;20240;-93
2021/04/03 02:52:52;;;;;;;8.07;5.03;;;10.60;99.90;;;;;;4925353;29;20216;-90
2021/04/03 02:55:29;;;;;;;7.27;4.87;;;10.60;99.90;;;;;;4923373;29;20240;-92
2021/04/03 02:58:01;;;;;;;7.17;5.57;;;10.50;99.90;;;;;;4923360;29;20278;-92
2021/04/03 03:00:33;;;;;;;5.03;3.67;;;10.50;99.90;;;;;;4922883;29;20233;-92
2021/04/03 03:03:07;;;;;;;4.03;2.50;;;10.40;99.90;;;;;;4922181;29;20217;-93
2021/04/03 03:05:38;;;;;;;2.87;2.50;;;10.30;99.90;;;;;;4922590;29;20284;-92
2021/04/03 03:08:09;;;;;;;3.80;3.00;;;10.20;99.90;;;;;;4922664;29;20220;-93
2021/04/03 03:10:41;;;;;;;5.50;2.80;;;10.20;99.90;;;;;;4922143;29;20201;-91
2021/04/03 03:13:17;;;;;;;2.73;2.33;;;10.20;99.90;;;;;;4921466;29;20209;-93
2021/04/03 03:15:48;;;;;;;4.80;2.70;;;10.10;99.90;;;;;;4922220;29;20205;-92
2021/04/03 03:18:21;;;;;;;5.97;3.30;;;10.10;99.90;;;;;;4922229;29;20595;-92
2021/04/03 03:20:53;;;;;;;4.70;3.63;;;10.00;99.90;;;;;;4920739;29;20221;-93
2021/04/03 03:23:23;;;;;;;2.63;2.00;;;9.90;99.90;;;;;;4919686;29;20233;-93
2021/04/03 03:25:58;;;;;;;2.73;2.00;;;9.70;99.90;;;;;;4922661;29;20213;-93
2021/04/03 03:28:29;;;;;;;3.30;2.37;;;9.60;99.90;;;;;;4924949;29;20208;-93
2021/04/03 03:31:00;;;;;;;2.67;1.93;;;9.60;99.90;;;;;;4921124;29;20712;-92
2021/04/03 03:33:33;;;;;;;4.70;2.33;;;9.60;99.90;;;;;;4922996;29;20201;-93
2021/04/03 03:36:04;;;;;;;5.00;2.30;;;9.50;99.90;;;;;;4921675;29;20207;-93
2021/04/03 03:38:36;;;;;;;5.07;2.90;;;9.50;99.90;;;;;;4922050;29;20212;-93
2021/04/03 03:41:08;;;;;;;5.63;2.60;;;9.40;99.90;;;;;;4933573;29;20205;-93
2021/04/03 03:43:39;;;;;;;3.43;2.53;;;9.30;99.90;;;;;;4933672;29;20242;-92
2021/04/03 03:46:10;;;;;;;3.30;2.33;;;9.30;99.90;;;;;;4920517;29;20206;-93
2021/04/03 03:48:47;;;;;;;3.93;3.07;;;9.30;99.90;;;;;;4909462;29;20663;-92
2021/04/03 03:51:18;;;;;;;6.77;4.07;;;9.20;99.90;;;;;;4907979;29;20209;-92
2021/04/03 03:53:48;;;;;;;8.20;4.03;;;9.10;99.90;;;;;;4907136;29;20254;-92
2021/04/03 03:56:19;;;;;;;8.33;3.73;;;9.10;99.90;;;;;;4907399;29;20206;-92
2021/04/03 03:58:50;;;;;;;7.80;3.27;;;9.00;99.90;;;;;;4922800;29;20245;-92
2021/04/03 04:01:20;;;;;;;8.40;3.87;;;9.00;99.90;;;;;;4929166;29;20643;-92
2021/04/03 04:03:53;;;;;;;6.13;3.53;;;8.90;99.90;;;;;;4925957;29;20216;-91
2021/04/03 04:06:23;;;;;;;7.17;3.60;;;8.90;99.90;;;;;;4934566;29;20189;-91
2021/04/03 04:08:55;;;;;;;10.17;3.30;;;8.90;99.90;;;;;;4940011;28;20283;-91
2021/04/03 04:11:27;;;;;;;6.97;3.67;;;8.80;99.90;;;;;;4939871;29;20220;-92
2021/04/03 04:13:59;;;;;;;6.43;3.10;;;8.80;99.90;;;;;;4938380;29;20201;-92
2021/04/03 04:16:29;;;;;;;4.83;2.53;;;8.70;99.90;;;;;;4938492;29;20225;-92
2021/04/03 04:19:07;;;;;;;3.90;2.80;;;8.70;99.90;;;;;;4938293;29;20219;-93
2021/04/03 04:21:38;;;;;;;4.77;3.10;;;8.60;99.90;;;;;;4923277;29;20615;-93
2021/04/03 04:24:09;;;;;;;5.60;3.07;;;8.50;99.90;;;;;;4922529;29;20339;-93
2021/04/03 04:26:40;;;;;;;4.67;2.70;;;8.50;99.90;;;;;;4921652;29;20217;-93
2021/04/03 04:29:11;;;;;;;4.93;2.93;;;8.40;99.90;;;;;;4923074;29;20212;-93
2021/04/03 04:31:42;;;;;;;5.20;3.10;;;8.30;99.90;;;;;;4921726;29;20220;-93
2021/04/03 04:34:14;;;;;;;7.27;3.93;;;8.30;99.90;;;;;;4924131;29;20634;-92
2021/04/03 04:36:45;;;;;;;8.20;3.90;;;8.20;99.90;;;;;;4925523;29;20237;-93
2021/04/03 04:39:16;;;;;;;6.00;3.63;;;8.20;99.90;;;;;;4925580;29;20232;-93
2021/04/03 04:41:47;;;;;;;7.80;4.20;;;8.10;99.90;;;;;;4928678;29;20284;-93
2021/04/03 04:44:19;;;;;;;6.90;4.20;;;8.10;99.90;;;;;;4930694;29;20208;-93
2021/04/03 04:46:50;;;;;;;5.83;3.33;;;8.10;99.90;;;;;;4931982;29;20216;-92
2021/04/03 04:49:23;;;;;;;6.33;3.17;;;8.00;99.90;;;;;;4932872;29;20218;-91
2021/04/03 04:51:55;;;;;;;7.63;3.10;;;7.90;99.90;;;;;;4929971;29;20496;-91
2021/04/03 04:54:26;;;;;;;4.63;3.00;;;7.80;99.90;;;;;;4932564;29;20243;-91
2021/04/03 04:56:57;;;;;;;5.03;3.03;;;7.80;99.90;;;;;;4934435;29;20243;-91
2021/04/03 04:59:29;;;;;;;4.90;3.07;;;7.80;99.90;;;;;;4932181;29;20220;-91
2021/04/03 05:01:59;;;;;;;6.23;4.03;;;7.80;99.90;;;;;;4931367;29;20208;-92
2021/04/03 05:04:32;;;;;;;8.93;4.83;;;7.80;99.90;;;;;;4925115;29;20212;-92
2021/04/03 05:07:02;;;;;;;8.80;4.80;;;7.70;99.90;;;;;;4925276;29;20280;-91
2021/04/03 05:09:35;;;;;;;9.13;5.00;;;7.60;99.90;;;;;;4915977;29;20274;-92
2021/04/03 05:12:06;;;;;;;7.70;5.40;;;7.50;99.90;;;;;;4903740;29;20213;-91
2021/04/03 05:14:37;;;;;;;5.63;3.97;;;7.50;99.90;;;;;;4907805;29;20213;-91
2021/04/03 05:17:08;;;;;;;8.60;3.40;;;7.50;99.90;;;;;;4905451;29;20244;-90
2021/04/03 05:19:40;;;;;;;6.43;3.23;;;7.50;99.90;;;;;;4906857;29;20216;-92
2021/04/03 05:22:12;;;;;;;5.70;3.20;;;7.40;99.90;;;;;;4916784;29;20212;-92
2021/04/03 05:24:43;;;;;;;6.10;3.23;;;7.50;99.90;;;;;;4919400;29;20242;-91
2021/04/03 05:27:16;;;;;;;8.07;3.80;;;7.50;99.90;;;;;;4925775;29;20216;-92
2021/04/03 05:29:47;;;;;;;7.47;3.77;;;7.40;99.90;;;;;;4918434;29;20225;-92
2021/04/03 05:32:20;;;;;;;4.93;3.60;;;7.30;99.90;;;;;;4904016;29;20296;-93
2021/04/03 05:34:54;;;;;;;5.87;3.50;;;7.30;99.90;;;;;;4905590;29;20272;-93
2021/04/03 05:37:26;;;;;;;8.00;3.40;;;7.30;99.90;;;;;;4906210;29;20236;-92
2021/04/03 05:39:57;;;;;;;7.03;3.57;;;7.20;99.90;;;;;;4905190;29;20213;-93
2021/04/03 05:42:34;;;;;;;4.90;2.93;;;7.10;99.90;;;;;;4905014;29;20240;-93
2021/04/03 05:45:07;;;;;;;6.70;3.30;;;7.20;99.90;;;;;;4907920;29;20254;-93
2021/04/03 05:47:38;;;;;;;6.43;3.87;;;7.20;99.90;;;;;;4907334;29;20202;-92
2021/04/03 05:50:12;;;;;;;8.73;5.00;;;7.10;99.90;;;;;;4907605;29;20217;-92
2021/04/03 05:52:43;;;;;;;7.37;5.10;;;7.20;99.90;;;;;;4909435;29;20278;-92
2021/04/03 05:55:15;;;;;;;7.93;4.93;;;7.20;99.90;;;;;;4924539;29;20212;-92
2021/04/03 05:57:46;;;;;;;8.47;3.77;;;7.10;99.90;;;;;;4924728;29;20247;-92
2021/04/03 06:00:21;;;;;;;9.10;3.63;;;7.10;99.90;;;;;;4922834;29;20213;-92
2021/04/03 06:02:53;;;;;;;7.73;4.03;;;7.00;99.90;;;;;;4925601;29;20215;-92
2021/04/03 06:05:26;;;;;;;8.53;4.07;;;7.00;99.90;;;;;;4941663;29;20219;-92
2021/04/03 06:07:57;;;;;;;5.10;3.80;;;7.00;99.90;;;;;;4942063;29;20208;-92
2021/04/03 06:10:28;;;;;;;6.57;3.70;;;6.90;99.90;;;;;;4936980;29;20228;-92
2021/04/03 06:12:59;;;;;;;9.23;4.83;;;6.90;99.90;;;;;;4925955;29;20258;-92
2021/04/03 06:15:39;;;;;;;8.60;5.10;;;6.90;99.90;;;;;;4923967;29;20251;-92
2021/04/03 06:18:16;;;;;;;8.67;4.60;;;6.80;99.90;;;;;;4922074;29;20256;-91
2021/04/03 06:20:48;;;;;;;6.57;4.83;;;6.80;99.90;;;;;;4923295;29;20216;-92
2021/04/03 06:23:32;;;;;;;8.90;4.80;;;6.80;99.90;;;;;;4923939;29;20221;-92
2021/04/03 06:26:03;;;;;;;7.83;5.23;;;6.80;99.90;;;;;;4923574;29;20223;-93
2021/04/03 06:28:34;;;;;;;8.70;5.70;;;6.80;99.90;;;;;;4922721;29;20617;-93
2021/04/03 06:31:16;;;;;;;10.70;6.23;;;6.80;99.90;;;;;;4922448;29;20268;-93
2021/04/03 06:33:48;;;;;;;8.60;5.53;;;6.70;99.90;;;;;;4923705;29;20236;-92
2021/04/03 06:36:24;;;;;;;8.43;5.27;;;6.80;99.90;;;;;;4925321;29;20196;-93
2021/04/03 06:39:01;;;;;;;10.87;5.00;;;6.70;99.90;;;;;;4924774;29;20673;-93
2021/04/03 06:41:34;;;;;;;10.77;4.97;;;6.70;99.90;;;;;;4924356;29;20223;-94
2021/04/03 06:44:07;;;;;;;7.80;4.33;;;6.70;99.90;;;;;;4926570;29;20217;-93
2021/04/03 06:46:39;;;;;;;7.67;4.73;;;6.70;99.90;;;;;;4924654;29;20236;-93
2021/04/03 06:49:10;;;;;;;6.40;4.50;;;6.60;99.90;;;;;;4927026;29;20261;-92
2021/04/03 06:51:43;;;;;;;6.03;4.50;;;6.60;99.90;;;;;;4922461;29;20217;-92
2021/04/03 06:54:15;;;;;;;7.33;4.23;;;6.60;99.90;;;;;;4922045;29;20709;-92
2021/04/03 06:56:47;;;;;;;6.43;4.17;;;6.60;99.90;;;;;;4928987;29;20317;-92
2021/04/03 06:59:19;;;;;;;9.77;4.30;;;6.50;99.90;;;;;;4949781;28;20208;-92
2021/04/03 07:01:57;;;;;;;8.67;4.43;;;6.60;99.90;;;;;;4928795;29;20216;-92
2021/04/03 07:04:32;;;;;;;8.30;5.10;;;6.50;99.90;;;;;;4928931;29;20256;-92
2021/04/03 07:07:05;;;;;;;6.37;4.10;;;6.50;99.90;;;;;;4931229;29;20756;-92
2021/04/03 07:09:36;;;;;;;5.97;4.23;;;6.50;99.90;;;;;;4931680;29;20209;-92
2021/04/03 07:12:11;;;;;;;7.40;4.10;;;6.40;99.90;;;;;;4930370;29;20209;-92
2021/04/03 07:14:43;;;;;;;7.47;4.40;;;6.40;99.90;;;;;;4931911;29;20220;-93
2021/04/03 07:17:16;;;;;;;7.77;4.50;;;6.30;99.90;;;;;;4932343;29;20307;-93
2021/04/03 07:19:50;;;;;;;8.50;4.17;;;6.30;99.90;;;;;;4922854;29;20205;-93
2021/04/03 07:22:23;;;;;;;8.77;5.00;;;6.30;99.90;;;;;;4920111;29;20217;-93
2021/04/03 07:24:54;;;;;;;8.70;5.33;;;6.30;99.90;;;;;;4911112;29;20218;-93
2021/04/03 07:27:25;;;;;;;10.23;5.90;;;6.20;99.90;;;;;;4904285;29;20237;-92
2021/04/03 07:29:55;;;;;;;8.47;4.57;;;6.20;99.90;;;;;;4902575;29;20205;-91
2021/04/03 07:32:37;;;;;;;8.73;4.83;;;6.20;99.90;;;;;;4900264;29;20240;-92
2021/04/03 07:35:20;;;;;;;7.50;4.37;;;6.20;99.90;;;;;;4902779;29;20214;-92
2021/04/03 07:37:53;;;;;;;7.97;4.30;;;6.20;99.90;;;;;;4902134;29;20236;-92
2021/04/03 07:40:42;;;;;;;8.07;4.70;;;6.10;99.90;;;;;;4901523;29;20686;-92
2021/04/03 07:43:37;;;;;;;6.77;4.50;;;6.20;99.90;;;;;;4903189;29;20689;-92
2021/04/03 07:46:10;;;;;;;5.60;3.83;;;6.10;99.90;;;;;;4901325;29;20247;-94
2021/04/03 07:48:48;;;;;;;6.60;4.03;;;6.10;99.90;;;;;;4901380;29;20233;-91
2021/04/03 07:51:45;;;;;;;6.10;3.70;;;6.10;99.90;;;;;;4908759;29;20264;-90
2021/04/03 07:54:33;;;;;;;6.50;4.47;;;6.10;99.90;;;;;;4920196;29;20276;-92
2021/04/03 07:57:07;;;;;;;8.60;4.53;;;6.10;99.90;;;;;;4919900;29;20225;-91
2021/04/03 07:59:58;;;;;;;7.57;4.67;;;6.10;99.90;;;;;;4920163;29;20256;-91
2021/04/03 08:02:31;;;;;;;8.07;4.60;;;6.00;99.90;;;;;;4914982;29;20650;-91
2021/04/03 08:05:12;;;;;;;8.10;4.60;;;6.00;99.90;;;;;;4920340;29;20209;-91
2021/04/03 08:07:43;;;;;;;8.43;5.27;;;6.00;99.90;;;;;;4920549;29;20248;-91
2021/04/03 08:10:30;;;;;;;6.27;4.40;;;6.00;99.90;;;;;;4920432;29;20268;-91
2021/04/03 08:13:03;;;;;;;8.40;5.00;;;6.00;99.90;;;;;;4919418;29;20248;-91
2021/04/03 08:15:34;;;;;;;7.53;4.90;;;5.80;99.90;;;;;;4921525;29;20267;-91
2021/04/03 08:18:11;;;;;;;6.20;4.27;;;5.90;99.90;;;;;;4927669;29;20252;-91
2021/04/03 08:20:53;;;;;;;7.53;4.83;;;5.80;99.90;;;;;;4937636;29;20227;-92
2021/04/03 08:23:32;;;;;;;8.43;4.60;;;5.70;99.90;;;;;;4937117;29;20254;-92
2021/04/03 08:26:06;;;;;;;9.47;4.80;;;5.70;99.90;;;;;;4933410;29;20644;-92
2021/04/03 08:28:38;;;;;;;6.30;4.57;;;5.60;99.90;;;;;;4924220;29;20237;-92
2021/04/03 08:31:16;;;;;;;7.20;4.80;;;5.60;99.90;;;;;;4925093;29;20232;-91
2021/04/03 08:33:48;;;;;;;8.53;7.37;;;5.50;99.90;;;;;;4920845;29;20209;-92
2021/04/03 08:36:20;;;;;;;9.07;6.53;;;5.50;99.90;;;;;;4921981;29;20596;-92
2021/04/03 08:38:51;;;;;;;10.00;6.67;;;5.50;99.90;;;;;;4922066;29;20574;-91
2021/04/03 08:41:27;;;;;;;11.20;6.70;;;5.50;99.90;;;;;;4919861;29;20221;-92
2021/04/03 08:43:59;;;;;;;8.30;5.40;;;5.50;99.90;;;;;;4922219;29;20297;-91
2021/04/03 08:46:30;;;;;;;10.20;5.40;;;5.40;99.90;;;;;;4920574;29;20205;-91
2021/04/03 08:49:01;;;;;;;6.63;5.17;;;5.40;99.90;;;;;;4919465;29;20253;-90
2021/04/03 08:51:33;;;;;;;8.27;5.20;;;5.40;99.90;;;;;;4919427;29;20227;-91
2021/04/03 08:54:04;;;;;;;7.40;4.47;;;5.30;99.90;;;;;;4918897;29;20213;-91
2021/04/03 08:56:39;;;;;;;7.70;4.60;;;5.20;99.90;;;;;;4919451;29;20292;-91
2021/04/03 08:59:14;;;;;;;7.20;4.80;;;5.20;99.90;;;;;;4918245;29;20284;-91
2021/04/03 09:01:50;;;;;;;7.70;4.63;;;5.30;99.90;;;;;;4919008;29;20212;-91
2021/04/03 09:04:23;;;;;;;6.43;4.20;;;5.30;99.90;;;;;;4921054;29;20260;-91
2021/04/03 09:06:54;;;;;;;5.67;4.10;;;5.30;99.90;;;;;;4921969;29;20245;-91
2021/04/03 09:09:28;;;;;;;5.73;4.10;;;5.30;99.90;;;;;;4924465;29;20206;-91
2021/04/03 09:12:03;;;;;;;5.63;4.03;;;5.30;99.90;;;;;;4926169;29;20245;-91
2021/04/03 09:14:35;;;;;;;5.07;3.53;;;5.30;99.90;;;;;;4927190;29;20254;-91
2021/04/03 09:17:23;;;;;;;5.47;3.70;;;5.30;99.90;;;;;;4928144;29;20205;-91
2021/04/03 09:20:04;;;;;;;5.70;3.40;;;5.30;99.90;;;;;;4918682;29;20218;-91
2021/04/03 09:22:40;;;;;;;7.37;3.50;;;5.20;99.90;;;;;;4912445;29;20298;-91
2021/04/03 09:25:14;;;;;;;5.13;3.93;;;5.20;99.90;;;;;;4913971;29;20244;-91
2021/04/03 09:27:58;;;;;;;4.33;3.33;;;5.10;99.90;;;;;;4912346;29;20217;-91
2021/04/03 09:30:34;;;;;;;5.23;3.87;;;5.20;99.90;;;;;;4910790;29;20214;-92
2021/04/03 09:33:23;;;;;;;6.17;3.40;;;5.20;99.90;;;;;;4912706;29;20245;-91
2021/04/03 09:35:54;;;;;;;4.73;3.27;;;5.20;99.90;;;;;;4920142;29;20214;-91
2021/04/03 09:38:34;;;;;;;7.07;3.60;;;5.10;99.90;;;;;;4923650;29;20237;-91
2021/04/03 09:41:20;;;;;;;5.13;3.80;;;4.90;99.90;;;;;;4919174;29;20289;-92
2021/04/03 09:43:55;;;;;;;8.40;4.50;;;4.80;99.90;;;;;;4922199;29;20227;-90
2021/04/03 09:46:26;;;;;;;7.10;4.53;;;4.80;99.90;;;;;;4929688;29;20201;-90
2021/04/03 09:48:57;;;;;;;9.27;4.40;;;4.80;99.90;;;;;;4941905;29;20197;-90
2021/04/03 09:51:27;;;;;;;8.90;4.50;;;4.80;99.90;;;;;;4930877;29;20244;-90
2021/04/03 09:53:58;;;;;;;6.23;3.60;;;4.90;99.90;;;;;;4925442;29;20705;-92
2021/04/03 09:56:28;;;;;;;4.63;3.13;;;4.90;99.90;;;;;;4926056;29;20249;-91
2021/04/03 09:59:01;;;;;;;4.60;3.20;;;5.00;99.90;;;;;;4924681;29;20308;-92
2021/04/03 10:01:32;;;;;;;6.23;3.60;;;4.90;99.90;;;;;;4924509;29;20237;-91
2021/04/03 10:04:03;;;;;;;5.43;3.33;;;4.90;99.90;;;;;;4925254;29;20220;-92
2021/04/03 10:06:33;;;;;;;4.20;3.13;;;4.90;99.90;;;;;;4923066;29;20652;-91
2021/04/03 10:09:05;;;;;;;6.20;3.57;;;4.90;99.90;;;;;;4923318;29;20578;-92
2021/04/03 10:11:36;;;;;;;5.03;3.30;;;4.90;99.90;;;;;;4921514;29;20588;-92
2021/04/03 10:14:09;;;;;;;6.93;3.67;;;5.00;99.90;;;;;;4922067;29;20742;-92
2021/04/03 10:16:40;;;;;;;6.53;3.23;;;4.90;99.90;;;;;;4922006;29;20212;-92
2021/04/03 10:19:10;;;;;;;5.57;3.50;;;5.00;99.90;;;;;;4921239;29;20292;-93
2021/04/03 10:21:41;;;;;;;5.47;3.57;;;5.00;99.90;;;;;;4921047;29;20272;-92
2021/04/03 10:24:12;;;;;;;6.57;3.20;;;5.00;99.90;;;;;;4922092;29;20212;-92
2021/04/03 10:26:44;;;;;;;5.20;3.13;;;5.00;99.90;;;;;;4922037;29;20208;-93
2021/04/03 10:29:17;;;;;;;7.70;3.67;;;5.10;99.90;;;;;;4921869;29;20233;-92
2021/04/03 10:31:48;;;;;;;6.17;3.73;;;5.10;99.90;;;;;;4921053;29;20205;-92
2021/04/03 10:34:19;;;;;;;5.60;3.67;;;5.20;99.90;;;;;;4921289;29;20217;-92
2021/04/03 10:36:51;;;;;;;6.77;3.63;;;5.20;99.90;;;;;;4922090;29;20370;-92
2021/04/03 10:39:22;;;;;;;5.20;2.97;;;5.20;99.90;;;;;;4922607;29;20568;-93
2021/04/03 10:41:53;;;;;;;6.13;3.40;;;5.20;99.90;;;;;;4932162;29;20272;-93
2021/04/03 10:44:25;;;;;;;6.10;3.73;;;5.20;99.90;;;;;;4940558;29;20209;-91
2021/04/03 10:46:56;;;;;;;8.60;4.03;;;5.20;99.90;;;;;;4934046;29;20241;-93
2021/04/03 10:49:28;;;;;;;4.30;3.70;;;5.20;99.90;;;;;;4926532;29;20220;-91
2021/04/03 10:52:01;;;;;;;5.60;3.80;;;5.20;99.90;;;;;;4921014;29;20394;-91
2021/04/03 10:54:33;;;;;;;6.97;3.23;;;5.30;99.90;;;;;;4918015;29;20202;-90
2021/04/03 10:57:06;;;;;;;5.97;3.40;;;5.30;99.90;;;;;;4901323;29;20667;-91
2021/04/03 10:59:37;;;;;;;6.13;3.80;;;5.30;99.90;;;;;;4919198;29;20204;-90
2021/04/03 11:02:07;;;;;;;5.20;3.50;;;5.30;99.90;;;;;;4924026;29;20243;-91
2021/04/03 11:04:40;;;;;;;4.13;3.50;;;5.40;99.90;;;;;;4928950;29;20230;-92
2021/04/03 11:07:10;;;;;;;6.07;3.73;;;5.40;99.90;;;;;;4930906;29;20216;-90
2021/04/03 11:09:41;;;;;;;4.73;3.77;;;5.40;99.90;;;;;;4927941;29;20335;-90
2021/04/03 11:12:13;;;;;;;5.00;3.33;;;5.40;99.90;;;;;;4926122;29;20236;-91
2021/04/03 11:14:46;;;;;;;7.10;3.60;;;5.40;99.90;;;;;;4910110;29;20253;-90
2021/04/03 11:17:17;;;;;;;5.20;3.13;;;5.40;99.90;;;;;;4908736;29;20213;-91
2021/04/03 11:19:48;;;;;;;4.23;2.97;;;5.40;99.90;;;;;;4908242;29;20213;-92
2021/04/03 11:22:22;;;;;;;5.63;3.37;;;5.50;99.90;;;;;;4908151;29;20221;-92
2021/04/03 11:24:53;;;;;;;3.33;3.00;;;5.40;99.90;;;;;;4910782;29;20206;-91
2021/04/03 11:27:23;;;;;;;4.93;2.83;;;5.40;99.90;;;;;;4910729;29;20237;-92
2021/04/03 11:29:58;;;;;;;4.60;3.10;;;5.30;99.90;;;;;;4907875;29;20226;-91
2021/04/03 11:32:44;;;;;;;4.83;3.37;;;5.20;99.90;;;;;;4905679;29;20236;-92
2021/04/03 11:35:16;;;;;;;4.20;2.90;;;5.30;99.90;;;;;;4906760;29;20218;-91
2021/04/03 11:37:47;;;;;;;3.37;3.07;;;5.20;99.90;;;;;;4914762;29;20228;-92
2021/04/03 11:40:20;;;;;;;6.83;3.50;;;5.20;99.90;;;;;;4923003;29;20212;-91
2021/04/03 11:42:55;;;;;;;4.43;3.23;;;5.20;99.90;;;;;;4921238;29;20300;-91
2021/04/03 11:45:31;;;;;;;5.37;3.00;;;5.30;99.90;;;;;;4920630;29;20209;-91
2021/04/03 11:48:03;;;;;;;6.67;3.47;;;5.20;99.90;;;;;;4921404;29;20573;-91
2021/04/03 11:50:34;;;;;;;4.87;3.10;;;5.10;99.90;;;;;;4921354;29;20257;-91
2021/04/03 11:53:09;;;;;;;4.67;3.10;;;5.10;99.90;;;;;;4920845;29;20200;-90
2021/04/03 11:55:40;;;;;;;4.23;3.00;;;5.10;99.90;;;;;;4921336;29;20215;-91
2021/04/03 11:58:11;;;;;;;5.13;3.33;;;5.10;99.90;;;;;;4923751;29;20237;-90
2021/04/03 12:00:48;;;;;;;4.67;3.20;;;5.10;99.90;;;;;;4921695;29;20256;-90
2021/04/03 12:03:19;;;;;;;5.63;3.23;;;5.10;99.90;;;;;;4921143;29;20228;-90
2021/04/03 12:05:50;;;;;;;4.37;3.23;;;5.10;99.90;;;;;;4922306;28;20212;-91
2021/04/03 12:08:22;;;;;;;5.30;3.37;;;5.10;99.90;;;;;;4923321;29;20216;-91
2021/04/03 12:10:53;;;;;;;6.53;3.83;;;5.20;99.90;;;;;;4922145;29;20206;-91
2021/04/03 12:13:23;;;;;;;5.13;3.40;;;5.10;99.90;;;;;;4923915;29;20213;-90
2021/04/03 12:15:55;;;;;;;8.03;3.53;;;4.90;99.90;;;;;;4923180;29;20248;-91
2021/04/03 12:18:26;;;;;;;5.13;3.50;;;4.90;99.90;;;;;;4924203;29;20259;-92
2021/04/03 12:20:58;;;;;;;6.70;3.40;;;4.90;99.90;;;;;;4925936;29;20300;-91
2021/04/03 12:23:29;;;;;;;6.57;3.43;;;4.90;99.90;;;;;;4924044;29;20209;-91
2021/04/03 12:26:00;;;;;;;5.60;4.30;;;4.90;99.90;;;;;;4924124;29;20316;-89
2021/04/03 12:28:34;;;;;;;4.67;3.43;;;4.90;99.90;;;;;;4925175;29;20236;-91
2021/04/03 12:31:07;;;;;;;6.37;3.30;;;4.90;99.90;;;;;;4925541;29;20213;-90
2021/04/03 12:33:38;;;;;;;4.37;3.60;;;4.90;99.90;;;;;;4924787;29;20237;-92
2021/04/03 12:36:09;;;;;;;5.33;3.40;;;4.90;99.90;;;;;;4925770;29;20213;-92
2021/04/03 12:38:40;;;;;;;7.33;3.97;;;4.90;99.90;;;;;;4925480;29;20228;-91
2021/04/03 12:41:11;;;;;;;5.43;2.80;;;5.00;99.90;;;;;;4924986;29;20670;-91
2021/04/03 12:43:41;;;;;;;5.60;3.57;;;4.90;99.90;;;;;;4924211;29;20212;-92
2021/04/03 12:46:13;;;;;;;6.37;3.40;;;4.90;99.90;;;;;;4925082;29;20210;-92
2021/04/03 12:48:44;;;;;;;8.60;3.87;;;4.90;99.90;;;;;;4928060;29;20225;-92
2021/04/03 12:51:15;;;;;;;3.80;2.87;;;4.90;99.90;;;;;;4925490;29;20273;-91
2021/04/03 12:53:45;;;;;;;6.23;3.20;;;4.90;99.90;;;;;;4906964;29;20261;-90
2021/04/03 12:56:16;;;;;;;6.53;3.83;;;4.90;99.90;;;;;;4910747;29;20217;-91
2021/04/03 12:58:47;;;;;;;5.23;3.87;;;4.90;99.90;;;;;;4928608;28;20241;-90
2021/04/03 13:01:20;;;;;;;5.40;3.50;;;4.80;99.90;;;;;;4943317;28;20205;-91
2021/04/03 13:03:51;;;;;;;4.93;3.47;;;4.80;99.90;;;;;;4941340;28;20212;-88
2021/04/03 13:06:21;;;;;;;6.97;3.70;;;4.80;99.90;;;;;;4936088;29;20288;-90
2021/04/03 13:08:55;;;;;;;6.13;3.60;;;4.80;99.90;;;;;;4930137;29;20233;-90
2021/04/03 13:11:24;;;;;;;5.20;4.03;;;4.70;99.90;;;;;;4909261;29;20205;-91
2021/04/03 13:13:55;;;;;;;8.83;4.23;;;4.80;99.90;;;;;;4905083;29;20213;-91
2021/04/03 13:16:30;;;;;;;8.17;4.17;;;4.80;99.90;;;;;;4905506;29;20301;-91
2021/04/03 13:19:01;;;;;;;5.47;4.00;;;4.80;99.90;;;;;;4910512;29;20285;-92
2021/04/03 13:21:32;;;;;;;7.10;3.80;;;4.80;99.90;;;;;;4915302;29;20258;-91
2021/04/03 13:24:03;;;;;;;6.40;4.07;;;4.80;99.90;;;;;;4912388;29;20687;-91
2021/04/03 13:26:34;;;;;;;6.43;3.83;;;4.90;99.90;;;;;;4913394;29;20741;-92
2021/04/03 13:29:05;;;;;;;7.47;5.17;;;4.80;99.90;;;;;;4913445;29;20269;-92